sensor_id;sensor_type;location;lat;lon;timestamp;temperature;humidity
6724;DHT22;3399;52.530;13.304;2022-08-19T00:01:07;24.10;99.90
6724;DHT22;3399;52.530;13.304;2022-08-19T00:03:33;24.10;99.90
6724;DHT22;3399;52.530;13.304;2022-08-19T00:05:59;24.00;99.90
6724;DHT22;3399;52.530;13.304;2022-08-19T00:08:25;24.00;99.90
6724;DHT22;3399;52.530;13.304;2022-08-19T00:10:50;24.00;99.90
6724;DHT22;3399;52.530;13.304;2022-08-19T00:13:16;23.90;99.90
6724;DHT22;3399;52.530;13.304;2022-08-19T00:15:41;23.80;99.90
6724;DHT22;3399;52.530;13.304;2022-08-19T00:18:09;23.70;99.90
6724;DHT22;3399;52.530;13.304;2022-08-19T00:20:35;23.60;99.90
6724;DHT22;3399;52.530;13.304;2022-08-19T00:23:00;23.70;99.90
6724;DHT22;3399;52.530;13.304;2022-08-19T00:25:26;23.70;99.90
6724;DHT22;3399;52.530;13.304;2022-08-19T00:27:51;23.70;99.90
6724;DHT22;3399;52.530;13.304;2022-08-19T00:30:17;23.80;99.90
6724;DHT22;3399;52.530;13.304;2022-08-19T00:32:42;23.80;99.90
6724;DHT22;3399;52.530;13.304;2022-08-19T00:35:08;23.80;99.90
6724;DHT22;3399;52.530;13.304;2022-08-19T00:37:35;23.80;99.90
6724;DHT22;3399;52.530;13.304;2022-08-19T00:40:01;24.00;99.90
6724;DHT22;3399;52.530;13.304;2022-08-19T00:42:28;24.20;99.90
6724;DHT22;3399;52.530;13.304;2022-08-19T00:44:53;24.30;99.90
6724;DHT22;3399;52.530;13.304;2022-08-19T00:47:19;24.40;99.90
6724;DHT22;3399;52.530;13.304;2022-08-19T00:49:47;24.50;99.90
6724;DHT22;3399;52.530;13.304;2022-08-19T00:52:26;24.60;99.90
6724;DHT22;3399;52.530;13.304;2022-08-19T00:54:54;24.60;99.90
6724;DHT22;3399;52.530;13.304;2022-08-19T00:57:27;24.50;99.90
6724;DHT22;3399;52.530;13.304;2022-08-19T00:59:55;24.50;99.90
6724;DHT22;3399;52.530;13.304;2022-08-19T01:02:21;24.50;99.90
6724;DHT22;3399;52.530;13.304;2022-08-19T01:04:46;24.40;99.90
6724;DHT22;3399;52.530;13.304;2022-08-19T01:07:12;24.40;99.90
6724;DHT22;3399;52.530;13.304;2022-08-19T01:09:38;24.30;99.90
6724;DHT22;3399;52.530;13.304;2022-08-19T01:12:03;24.20;99.90
6724;DHT22;3399;52.530;13.304;2022-08-19T01:14:30;24.10;99.90
6724;DHT22;3399;52.530;13.304;2022-08-19T01:16:56;24.10;99.90
6724;DHT22;3399;52.530;13.304;2022-08-19T01:19:29;24.20;99.90
6724;DHT22;3399;52.530;13.304;2022-08-19T01:22:14;24.20;99.90
6724;DHT22;3399;52.530;13.304;2022-08-19T01:24:41;24.40;99.90
6724;DHT22;3399;52.530;13.304;2022-08-19T01:27:07;24.40;99.90
6724;DHT22;3399;52.530;13.304;2022-08-19T01:29:33;24.40;99.90
6724;DHT22;3399;52.530;13.304;2022-08-19T01:32:00;24.40;99.90
6724;DHT22;3399;52.530;13.304;2022-08-19T01:34:26;24.30;99.90
6724;DHT22;3399;52.530;13.304;2022-08-19T01:36:51;24.30;99.90
6724;DHT22;3399;52.530;13.304;2022-08-19T01:39:23;24.20;99.90
6724;DHT22;3399;52.530;13.304;2022-08-19T01:41:49;24.10;99.90
6724;DHT22;3399;52.530;13.304;2022-08-19T01:44:15;24.00;99.90
6724;DHT22;3399;52.530;13.304;2022-08-19T01:46:42;24.00;99.90
6724;DHT22;3399;52.530;13.304;2022-08-19T01:49:09;24.00;99.90
6724;DHT22;3399;52.530;13.304;2022-08-19T01:51:36;24.00;99.90
6724;DHT22;3399;52.530;13.304;2022-08-19T01:54:02;24.00;99.90
6724;DHT22;3399;52.530;13.304;2022-08-19T01:56:28;23.90;99.90
6724;DHT22;3399;52.530;13.304;2022-08-19T01:59:00;23.90;99.90
6724;DHT22;3399;52.530;13.304;2022-08-19T02:01:27;23.80;99.90
6724;DHT22;3399;52.530;13.304;2022-08-19T02:03:53;23.80;99.90
6724;DHT22;3399;52.530;13.304;2022-08-19T02:06:19;23.70;99.90
6724;DHT22;3399;52.530;13.304;2022-08-19T02:08:45;23.80;99.90
6724;DHT22;3399;52.530;13.304;2022-08-19T02:11:27;23.80;99.90
6724;DHT22;3399;52.530;13.304;2022-08-19T02:13:54;23.60;99.90
6724;DHT22;3399;52.530;13.304;2022-08-19T02:16:20;23.50;99.90
6724;DHT22;3399;52.530;13.304;2022-08-19T02:18:47;23.40;99.90
6724;DHT22;3399;52.530;13.304;2022-08-19T02:21:18;23.50;99.90
6724;DHT22;3399;52.530;13.304;2022-08-19T02:23:44;23.40;99.90
6724;DHT22;3399;52.530;13.304;2022-08-19T02:26:11;23.50;99.90
6724;DHT22;3399;52.530;13.304;2022-08-19T02:28:37;23.40;99.90
6724;DHT22;3399;52.530;13.304;2022-08-19T02:31:08;23.30;99.90
6724;DHT22;3399;52.530;13.304;2022-08-19T02:33:34;23.20;99.90
6724;DHT22;3399;52.530;13.304;2022-08-19T02:36:03;23.10;99.90
6724;DHT22;3399;52.530;13.304;2022-08-19T02:38:29;23.10;99.90
6724;DHT22;3399;52.530;13.304;2022-08-19T02:40:58;23.00;99.90
6724;DHT22;3399;52.530;13.304;2022-08-19T02:43:24;23.00;99.90
6724;DHT22;3399;52.530;13.304;2022-08-19T02:45:51;22.90;99.90
6724;DHT22;3399;52.530;13.304;2022-08-19T02:48:19;22.80;99.90
6724;DHT22;3399;52.530;13.304;2022-08-19T02:50:45;22.70;99.90
6724;DHT22;3399;52.530;13.304;2022-08-19T02:53:11;22.80;99.90
6724;DHT22;3399;52.530;13.304;2022-08-19T02:55:43;22.80;99.90
6724;DHT22;3399;52.530;13.304;2022-08-19T02:58:09;22.80;99.90
6724;DHT22;3399;52.530;13.304;2022-08-19T03:00:35;22.80;99.90
6724;DHT22;3399;52.530;13.304;2022-08-19T03:03:00;22.80;99.90
6724;DHT22;3399;52.530;13.304;2022-08-19T03:05:26;22.90;99.90
6724;DHT22;3399;52.530;13.304;2022-08-19T03:07:52;23.10;99.90
6724;DHT22;3399;52.530;13.304;2022-08-19T03:10:18;23.10;99.90
6724;DHT22;3399;52.530;13.304;2022-08-19T03:12:44;23.20;99.90
6724;DHT22;3399;52.530;13.304;2022-08-19T03:15:11;23.20;99.90
6724;DHT22;3399;52.530;13.304;2022-08-19T03:17:36;23.20;99.90
6724;DHT22;3399;52.530;13.304;2022-08-19T03:20:03;23.30;99.90
6724;DHT22;3399;52.530;13.304;2022-08-19T03:22:29;23.30;99.90
6724;DHT22;3399;52.530;13.304;2022-08-19T03:24:55;23.20;99.90
6724;DHT22;3399;52.530;13.304;2022-08-19T03:27:20;23.30;99.90
6724;DHT22;3399;52.530;13.304;2022-08-19T03:29:46;23.30;99.90
6724;DHT22;3399;52.530;13.304;2022-08-19T03:32:11;23.30;99.90
6724;DHT22;3399;52.530;13.304;2022-08-19T03:34:38;23.20;99.90
6724;DHT22;3399;52.530;13.304;2022-08-19T03:37:06;23.20;99.90
6724;DHT22;3399;52.530;13.304;2022-08-19T03:39:32;23.20;99.90
6724;DHT22;3399;52.530;13.304;2022-08-19T03:41:58;23.20;99.90
6724;DHT22;3399;52.530;13.304;2022-08-19T03:44:28;23.30;99.90
6724;DHT22;3399;52.530;13.304;2022-08-19T03:46:55;23.30;99.90
6724;DHT22;3399;52.530;13.304;2022-08-19T03:49:24;23.30;99.90
6724;DHT22;3399;52.530;13.304;2022-08-19T03:51:50;23.30;99.90
6724;DHT22;3399;52.530;13.304;2022-08-19T03:54:21;23.30;99.90
6724;DHT22;3399;52.530;13.304;2022-08-19T03:56:49;23.30;99.90
6724;DHT22;3399;52.530;13.304;2022-08-19T03:59:21;23.40;99.90
6724;DHT22;3399;52.530;13.304;2022-08-19T04:01:52;23.50;99.90
6724;DHT22;3399;52.530;13.304;2022-08-19T04:04:18;23.50;99.90
6724;DHT22;3399;52.530;13.304;2022-08-19T04:06:43;23.60;99.90
6724;DHT22;3399;52.530;13.304;2022-08-19T04:09:11;23.60;99.90
6724;DHT22;3399;52.530;13.304;2022-08-19T04:11:42;23.60;99.90
6724;DHT22;3399;52.530;13.304;2022-08-19T04:14:10;23.60;99.90
6724;DHT22;3399;52.530;13.304;2022-08-19T04:16:36;23.40;99.90
6724;DHT22;3399;52.530;13.304;2022-08-19T04:19:03;23.40;99.90
6724;DHT22;3399;52.530;13.304;2022-08-19T04:21:30;23.50;99.90
6724;DHT22;3399;52.530;13.304;2022-08-19T04:23:56;23.50;99.90
6724;DHT22;3399;52.530;13.304;2022-08-19T04:26:26;23.50;99.90
6724;DHT22;3399;52.530;13.304;2022-08-19T04:28:51;23.60;99.90
6724;DHT22;3399;52.530;13.304;2022-08-19T04:31:23;23.50;99.90
6724;DHT22;3399;52.530;13.304;2022-08-19T04:33:57;23.50;99.90
6724;DHT22;3399;52.530;13.304;2022-08-19T04:36:26;23.40;99.90
6724;DHT22;3399;52.530;13.304;2022-08-19T04:38:56;23.40;99.90
6724;DHT22;3399;52.530;13.304;2022-08-19T04:41:23;23.40;99.90
6724;DHT22;3399;52.530;13.304;2022-08-19T04:44:07;23.40;99.90
6724;DHT22;3399;52.530;13.304;2022-08-19T04:46:33;23.40;99.90
6724;DHT22;3399;52.530;13.304;2022-08-19T04:49:00;23.50;99.90
6724;DHT22;3399;52.530;13.304;2022-08-19T04:51:25;23.40;99.90
6724;DHT22;3399;52.530;13.304;2022-08-19T04:53:52;23.40;99.90
6724;DHT22;3399;52.530;13.304;2022-08-19T04:56:20;23.40;99.90
6724;DHT22;3399;52.530;13.304;2022-08-19T04:58:52;23.40;99.90
6724;DHT22;3399;52.530;13.304;2022-08-19T05:01:22;23.50;99.90
6724;DHT22;3399;52.530;13.304;2022-08-19T05:03:48;23.60;99.90
6724;DHT22;3399;52.530;13.304;2022-08-19T05:06:17;23.60;99.90
6724;DHT22;3399;52.530;13.304;2022-08-19T05:08:44;23.60;99.90
6724;DHT22;3399;52.530;13.304;2022-08-19T05:11:12;23.60;99.90
6724;DHT22;3399;52.530;13.304;2022-08-19T05:13:38;23.60;99.90
6724;DHT22;3399;52.530;13.304;2022-08-19T05:16:05;23.60;99.90
6724;DHT22;3399;52.530;13.304;2022-08-19T05:18:30;23.70;99.90
6724;DHT22;3399;52.530;13.304;2022-08-19T05:21:17;23.70;99.90
6724;DHT22;3399;52.530;13.304;2022-08-19T05:24:02;23.70;99.90
6724;DHT22;3399;52.530;13.304;2022-08-19T05:26:28;23.80;99.90
6724;DHT22;3399;52.530;13.304;2022-08-19T05:28:54;23.80;99.90
6724;DHT22;3399;52.530;13.304;2022-08-19T05:31:21;23.80;99.90
6724;DHT22;3399;52.530;13.304;2022-08-19T05:33:47;24.00;99.90
6724;DHT22;3399;52.530;13.304;2022-08-19T05:36:13;24.10;99.90
6724;DHT22;3399;52.530;13.304;2022-08-19T05:38:39;24.20;99.90
6724;DHT22;3399;52.530;13.304;2022-08-19T05:41:09;24.30;99.90
6724;DHT22;3399;52.530;13.304;2022-08-19T05:43:35;24.40;99.90
6724;DHT22;3399;52.530;13.304;2022-08-19T05:46:03;24.50;99.90
6724;DHT22;3399;52.530;13.304;2022-08-19T05:48:29;24.50;99.90
6724;DHT22;3399;52.530;13.304;2022-08-19T05:50:56;24.40;99.90
6724;DHT22;3399;52.530;13.304;2022-08-19T05:53:22;24.40;99.90
6724;DHT22;3399;52.530;13.304;2022-08-19T05:55:47;24.30;99.90
6724;DHT22;3399;52.530;13.304;2022-08-19T05:58:13;24.20;99.90
6724;DHT22;3399;52.530;13.304;2022-08-19T06:00:38;24.20;99.90
6724;DHT22;3399;52.530;13.304;2022-08-19T06:03:05;24.10;99.90
6724;DHT22;3399;52.530;13.304;2022-08-19T06:05:31;24.10;99.90
6724;DHT22;3399;52.530;13.304;2022-08-19T06:07:57;24.10;99.90
6724;DHT22;3399;52.530;13.304;2022-08-19T06:10:24;24.10;99.90
6724;DHT22;3399;52.530;13.304;2022-08-19T06:12:51;24.20;99.90
6724;DHT22;3399;52.530;13.304;2022-08-19T06:15:17;24.20;99.90
6724;DHT22;3399;52.530;13.304;2022-08-19T06:17:43;24.10;99.90
6724;DHT22;3399;52.530;13.304;2022-08-19T06:20:14;24.10;99.90
6724;DHT22;3399;52.530;13.304;2022-08-19T06:22:41;24.10;99.90
6724;DHT22;3399;52.530;13.304;2022-08-19T06:25:07;24.20;99.90
6724;DHT22;3399;52.530;13.304;2022-08-19T06:27:34;24.20;99.90
6724;DHT22;3399;52.530;13.304;2022-08-19T06:30:01;24.30;99.90
6724;DHT22;3399;52.530;13.304;2022-08-19T06:32:26;24.50;99.90
6724;DHT22;3399;52.530;13.304;2022-08-19T06:34:52;24.60;99.90
6724;DHT22;3399;52.530;13.304;2022-08-19T06:37:17;24.70;99.90
6724;DHT22;3399;52.530;13.304;2022-08-19T06:39:44;24.80;99.90
6724;DHT22;3399;52.530;13.304;2022-08-19T06:42:10;24.70;99.90
6724;DHT22;3399;52.530;13.304;2022-08-19T06:44:40;24.70;99.90
6724;DHT22;3399;52.530;13.304;2022-08-19T06:47:08;24.70;99.90
6724;DHT22;3399;52.530;13.304;2022-08-19T06:49:34;24.60;99.90
6724;DHT22;3399;52.530;13.304;2022-08-19T06:52:00;24.60;99.90
6724;DHT22;3399;52.530;13.304;2022-08-19T06:54:27;24.60;99.90
6724;DHT22;3399;52.530;13.304;2022-08-19T06:56:55;24.60;99.90
6724;DHT22;3399;52.530;13.304;2022-08-19T06:59:22;24.50;99.90
6724;DHT22;3399;52.530;13.304;2022-08-19T07:01:51;24.40;99.90
6724;DHT22;3399;52.530;13.304;2022-08-19T07:04:20;24.40;99.90
6724;DHT22;3399;52.530;13.304;2022-08-19T07:06:47;24.30;99.90
6724;DHT22;3399;52.530;13.304;2022-08-19T07:09:14;24.20;99.90
6724;DHT22;3399;52.530;13.304;2022-08-19T07:11:50;24.10;99.90
6724;DHT22;3399;52.530;13.304;2022-08-19T07:14:20;24.00;99.90
6724;DHT22;3399;52.530;13.304;2022-08-19T07:16:48;24.00;99.90
6724;DHT22;3399;52.530;13.304;2022-08-19T07:19:15;24.00;99.90
6724;DHT22;3399;52.530;13.304;2022-08-19T07:21:41;24.00;99.90
6724;DHT22;3399;52.530;13.304;2022-08-19T07:24:07;24.10;99.90
6724;DHT22;3399;52.530;13.304;2022-08-19T07:26:40;24.10;99.90
6724;DHT22;3399;52.530;13.304;2022-08-19T07:29:06;24.20;99.90
6724;DHT22;3399;52.530;13.304;2022-08-19T07:31:31;24.20;99.90
6724;DHT22;3399;52.530;13.304;2022-08-19T07:34:01;24.30;99.90
6724;DHT22;3399;52.530;13.304;2022-08-19T07:36:28;24.30;99.90
6724;DHT22;3399;52.530;13.304;2022-08-19T07:38:59;24.30;99.90
6724;DHT22;3399;52.530;13.304;2022-08-19T07:41:27;24.30;99.90
6724;DHT22;3399;52.530;13.304;2022-08-19T07:43:54;24.40;99.90
6724;DHT22;3399;52.530;13.304;2022-08-19T07:46:20;24.30;99.90
6724;DHT22;3399;52.530;13.304;2022-08-19T07:48:47;24.30;99.90
6724;DHT22;3399;52.530;13.304;2022-08-19T07:51:16;24.20;99.90
6724;DHT22;3399;52.530;13.304;2022-08-19T07:53:42;24.20;99.90
6724;DHT22;3399;52.530;13.304;2022-08-19T07:56:09;24.20;99.90
6724;DHT22;3399;52.530;13.304;2022-08-19T07:58:38;24.10;99.90
6724;DHT22;3399;52.530;13.304;2022-08-19T08:01:06;24.00;99.90
6724;DHT22;3399;52.530;13.304;2022-08-19T08:03:32;24.00;99.90
6724;DHT22;3399;52.530;13.304;2022-08-19T08:06:16;23.90;99.90
6724;DHT22;3399;52.530;13.304;2022-08-19T08:09:03;24.00;99.90
6724;DHT22;3399;52.530;13.304;2022-08-19T08:11:46;24.00;99.90
6724;DHT22;3399;52.530;13.304;2022-08-19T08:14:19;24.00;99.90
6724;DHT22;3399;52.530;13.304;2022-08-19T08:16:46;23.90;99.90
6724;DHT22;3399;52.530;13.304;2022-08-19T08:19:13;23.80;99.90
6724;DHT22;3399;52.530;13.304;2022-08-19T08:21:40;23.80;99.90
6724;DHT22;3399;52.530;13.304;2022-08-19T08:24:06;23.80;99.90
6724;DHT22;3399;52.530;13.304;2022-08-19T08:26:32;23.80;99.90
6724;DHT22;3399;52.530;13.304;2022-08-19T08:28:57;23.80;99.90
6724;DHT22;3399;52.530;13.304;2022-08-19T08:31:23;23.80;99.90
6724;DHT22;3399;52.530;13.304;2022-08-19T08:33:48;23.70;99.90
6724;DHT22;3399;52.530;13.304;2022-08-19T08:36:14;23.70;99.90
6724;DHT22;3399;52.530;13.304;2022-08-19T08:38:42;23.70;99.90
6724;DHT22;3399;52.530;13.304;2022-08-19T08:41:22;23.80;99.90
6724;DHT22;3399;52.530;13.304;2022-08-19T08:43:51;23.70;99.90
6724;DHT22;3399;52.530;13.304;2022-08-19T08:46:39;23.70;99.90
6724;DHT22;3399;52.530;13.304;2022-08-19T08:49:47;23.70;99.90
6724;DHT22;3399;52.530;13.304;2022-08-19T08:52:23;23.80;99.90
6724;DHT22;3399;52.530;13.304;2022-08-19T08:54:53;23.80;99.90
6724;DHT22;3399;52.530;13.304;2022-08-19T09:00:15;23.80;99.90
6724;DHT22;3399;52.530;13.304;2022-08-19T09:02:43;23.80;99.90
6724;DHT22;3399;52.530;13.304;2022-08-19T09:05:09;23.90;99.90
6724;DHT22;3399;52.530;13.304;2022-08-19T09:08:04;23.90;99.90
6724;DHT22;3399;52.530;13.304;2022-08-19T09:16:03;23.70;99.90
6724;DHT22;3399;52.530;13.304;2022-08-19T09:18:51;23.70;99.90
6724;DHT22;3399;52.530;13.304;2022-08-19T09:21:21;23.70;99.90
6724;DHT22;3399;52.530;13.304;2022-08-19T09:23:48;23.60;99.90
6724;DHT22;3399;52.530;13.304;2022-08-19T09:26:16;23.70;99.90
6724;DHT22;3399;52.530;13.304;2022-08-19T09:28:47;23.70;99.90
6724;DHT22;3399;52.530;13.304;2022-08-19T09:31:14;23.80;99.90
6724;DHT22;3399;52.530;13.304;2022-08-19T09:33:40;23.80;99.90
6724;DHT22;3399;52.530;13.304;2022-08-19T09:36:12;23.80;99.90
6724;DHT22;3399;52.530;13.304;2022-08-19T09:38:39;23.90;99.90
6724;DHT22;3399;52.530;13.304;2022-08-19T09:41:07;24.00;99.90
6724;DHT22;3399;52.530;13.304;2022-08-19T09:43:33;24.10;99.90
6724;DHT22;3399;52.530;13.304;2022-08-19T09:46:03;24.10;99.90
6724;DHT22;3399;52.530;13.304;2022-08-19T09:48:31;24.20;99.90
6724;DHT22;3399;52.530;13.304;2022-08-19T09:51:03;24.20;99.90
6724;DHT22;3399;52.530;13.304;2022-08-19T09:53:29;24.20;99.90
6724;DHT22;3399;52.530;13.304;2022-08-19T09:55:57;24.30;99.90
6724;DHT22;3399;52.530;13.304;2022-08-19T09:58:22;24.30;99.90
6724;DHT22;3399;52.530;13.304;2022-08-19T10:00:56;24.30;99.90
6724;DHT22;3399;52.530;13.304;2022-08-19T10:03:24;24.40;99.90
6724;DHT22;3399;52.530;13.304;2022-08-19T10:05:50;24.40;99.90
6724;DHT22;3399;52.530;13.304;2022-08-19T10:08:18;24.40;99.90
6724;DHT22;3399;52.530;13.304;2022-08-19T10:10:44;24.40;99.90
6724;DHT22;3399;52.530;13.304;2022-08-19T10:13:10;24.40;99.90
6724;DHT22;3399;52.530;13.304;2022-08-19T10:15:36;24.40;99.90
6724;DHT22;3399;52.530;13.304;2022-08-19T10:18:05;24.40;99.90
6724;DHT22;3399;52.530;13.304;2022-08-19T10:20:31;24.40;99.90
6724;DHT22;3399;52.530;13.304;2022-08-19T10:22:56;24.50;99.90
6724;DHT22;3399;52.530;13.304;2022-08-19T10:25:24;24.50;99.90
6724;DHT22;3399;52.530;13.304;2022-08-19T10:27:51;24.50;99.90
6724;DHT22;3399;52.530;13.304;2022-08-19T10:30:17;24.50;99.90
6724;DHT22;3399;52.530;13.304;2022-08-19T10:32:42;24.50;99.90
6724;DHT22;3399;52.530;13.304;2022-08-19T10:35:08;24.50;99.90
6724;DHT22;3399;52.530;13.304;2022-08-19T10:37:36;24.50;99.90
6724;DHT22;3399;52.530;13.304;2022-08-19T10:40:03;24.50;99.90
6724;DHT22;3399;52.530;13.304;2022-08-19T10:42:29;24.60;99.90
6724;DHT22;3399;52.530;13.304;2022-08-19T10:44:56;24.60;99.90
6724;DHT22;3399;52.530;13.304;2022-08-19T10:47:22;24.60;99.90
6724;DHT22;3399;52.530;13.304;2022-08-19T10:49:48;24.60;99.90
6724;DHT22;3399;52.530;13.304;2022-08-19T10:52:33;24.60;99.90
6724;DHT22;3399;52.530;13.304;2022-08-19T10:54:59;24.60;99.90
6724;DHT22;3399;52.530;13.304;2022-08-19T10:57:43;24.60;99.90
6724;DHT22;3399;52.530;13.304;2022-08-19T11:00:09;24.60;99.90
6724;DHT22;3399;52.530;13.304;2022-08-19T11:02:35;24.60;99.90
6724;DHT22;3399;52.530;13.304;2022-08-19T11:05:01;24.60;99.90
6724;DHT22;3399;52.530;13.304;2022-08-19T11:07:26;24.60;99.90
6724;DHT22;3399;52.530;13.304;2022-08-19T11:09:52;24.60;99.90
6724;DHT22;3399;52.530;13.304;2022-08-19T11:12:17;24.60;99.90
6724;DHT22;3399;52.530;13.304;2022-08-19T11:14:44;24.60;99.90
6724;DHT22;3399;52.530;13.304;2022-08-19T11:17:10;24.50;99.90
6724;DHT22;3399;52.530;13.304;2022-08-19T11:19:39;24.40;99.90
6724;DHT22;3399;52.530;13.304;2022-08-19T11:22:08;24.30;99.90
6724;DHT22;3399;52.530;13.304;2022-08-19T11:24:35;24.30;99.90
6724;DHT22;3399;52.530;13.304;2022-08-19T11:27:05;24.30;99.90
6724;DHT22;3399;52.530;13.304;2022-08-19T11:29:32;24.20;99.90
6724;DHT22;3399;52.530;13.304;2022-08-19T11:31:59;24.20;99.90
6724;DHT22;3399;52.530;13.304;2022-08-19T11:34:27;24.20;99.90
6724;DHT22;3399;52.530;13.304;2022-08-19T11:36:54;24.20;99.90
6724;DHT22;3399;52.530;13.304;2022-08-19T11:39:23;24.10;99.90
6724;DHT22;3399;52.530;13.304;2022-08-19T11:41:49;24.10;99.90
6724;DHT22;3399;52.530;13.304;2022-08-19T11:44:14;24.00;99.90
6724;DHT22;3399;52.530;13.304;2022-08-19T11:46:42;24.00;99.90
6724;DHT22;3399;52.530;13.304;2022-08-19T11:49:10;24.00;99.90
6724;DHT22;3399;52.530;13.304;2022-08-19T11:51:36;24.00;99.90
6724;DHT22;3399;52.530;13.304;2022-08-19T11:54:04;24.00;99.90
6724;DHT22;3399;52.530;13.304;2022-08-19T11:56:30;24.00;99.90
6724;DHT22;3399;52.530;13.304;2022-08-19T11:58:56;23.90;99.90
6724;DHT22;3399;52.530;13.304;2022-08-19T12:01:23;23.90;99.90
6724;DHT22;3399;52.530;13.304;2022-08-19T12:03:50;24.00;99.90
6724;DHT22;3399;52.530;13.304;2022-08-19T12:06:19;24.00;99.90
6724;DHT22;3399;52.530;13.304;2022-08-19T12:08:45;24.10;99.90
6724;DHT22;3399;52.530;13.304;2022-08-19T12:11:12;24.10;99.90
6724;DHT22;3399;52.530;13.304;2022-08-19T12:13:39;24.10;99.90
6724;DHT22;3399;52.530;13.304;2022-08-19T12:16:14;24.20;99.90
6724;DHT22;3399;52.530;13.304;2022-08-19T12:18:41;24.20;99.90
6724;DHT22;3399;52.530;13.304;2022-08-19T12:21:10;24.30;99.90
6724;DHT22;3399;52.530;13.304;2022-08-19T12:23:37;24.40;99.90
6724;DHT22;3399;52.530;13.304;2022-08-19T12:26:03;24.30;99.90
6724;DHT22;3399;52.530;13.304;2022-08-19T12:28:29;24.30;99.90
6724;DHT22;3399;52.530;13.304;2022-08-19T12:30:56;24.30;99.90
6724;DHT22;3399;52.530;13.304;2022-08-19T12:33:22;24.30;99.90
6724;DHT22;3399;52.530;13.304;2022-08-19T12:35:50;24.20;99.90
6724;DHT22;3399;52.530;13.304;2022-08-19T12:38:16;24.20;99.90
6724;DHT22;3399;52.530;13.304;2022-08-19T12:40:45;24.30;99.90
6724;DHT22;3399;52.530;13.304;2022-08-19T12:43:11;24.30;99.90
6724;DHT22;3399;52.530;13.304;2022-08-19T12:45:37;24.30;99.90
6724;DHT22;3399;52.530;13.304;2022-08-19T12:48:03;24.40;99.90
6724;DHT22;3399;52.530;13.304;2022-08-19T12:50:28;24.40;99.90
6724;DHT22;3399;52.530;13.304;2022-08-19T12:52:54;24.40;99.90
6724;DHT22;3399;52.530;13.304;2022-08-19T12:55:19;24.40;99.90
6724;DHT22;3399;52.530;13.304;2022-08-19T12:57:45;24.40;99.90
6724;DHT22;3399;52.530;13.304;2022-08-19T13:00:14;24.40;99.90
6724;DHT22;3399;52.530;13.304;2022-08-19T13:02:42;24.40;99.90
6724;DHT22;3399;52.530;13.304;2022-08-19T13:05:12;24.40;99.90
6724;DHT22;3399;52.530;13.304;2022-08-19T13:07:39;24.40;99.90
6724;DHT22;3399;52.530;13.304;2022-08-19T13:10:07;24.40;99.90
6724;DHT22;3399;52.530;13.304;2022-08-19T13:12:32;24.40;99.90
6724;DHT22;3399;52.530;13.304;2022-08-19T13:14:58;24.50;99.90
6724;DHT22;3399;52.530;13.304;2022-08-19T13:17:23;24.50;99.90
6724;DHT22;3399;52.530;13.304;2022-08-19T13:19:49;24.60;99.90
6724;DHT22;3399;52.530;13.304;2022-08-19T13:22:16;24.50;99.90
6724;DHT22;3399;52.530;13.304;2022-08-19T13:24:41;24.50;99.90
6724;DHT22;3399;52.530;13.304;2022-08-19T13:27:07;24.50;99.90
6724;DHT22;3399;52.530;13.304;2022-08-19T13:29:33;24.40;99.90
6724;DHT22;3399;52.530;13.304;2022-08-19T13:32:17;24.50;99.90
6724;DHT22;3399;52.530;13.304;2022-08-19T13:35:02;24.50;99.90
6724;DHT22;3399;52.530;13.304;2022-08-19T13:37:27;24.60;99.90
6724;DHT22;3399;52.530;13.304;2022-08-19T13:40:15;24.60;99.90
6724;DHT22;3399;52.530;13.304;2022-08-19T13:42:44;24.70;99.90
6724;DHT22;3399;52.530;13.304;2022-08-19T13:45:13;24.70;99.90
6724;DHT22;3399;52.530;13.304;2022-08-19T13:47:39;24.70;99.90
6724;DHT22;3399;52.530;13.304;2022-08-19T13:50:09;24.70;99.90
6724;DHT22;3399;52.530;13.304;2022-08-19T13:52:36;24.70;99.90
6724;DHT22;3399;52.530;13.304;2022-08-19T13:55:02;24.70;99.90
6724;DHT22;3399;52.530;13.304;2022-08-19T13:57:28;24.70;99.90
6724;DHT22;3399;52.530;13.304;2022-08-19T13:59:54;24.70;99.90
6724;DHT22;3399;52.530;13.304;2022-08-19T14:02:19;24.70;99.90
6724;DHT22;3399;52.530;13.304;2022-08-19T14:04:45;24.80;99.90
6724;DHT22;3399;52.530;13.304;2022-08-19T14:07:11;24.70;99.90
6724;DHT22;3399;52.530;13.304;2022-08-19T14:09:36;24.70;99.90
6724;DHT22;3399;52.530;13.304;2022-08-19T14:12:02;24.70;99.90
6724;DHT22;3399;52.530;13.304;2022-08-19T14:14:27;24.70;99.90
6724;DHT22;3399;52.530;13.304;2022-08-19T14:16:54;24.70;99.90
6724;DHT22;3399;52.530;13.304;2022-08-19T14:19:19;24.70;99.90
6724;DHT22;3399;52.530;13.304;2022-08-19T14:21:45;24.70;99.90
6724;DHT22;3399;52.530;13.304;2022-08-19T14:24:10;24.70;99.90
6724;DHT22;3399;52.530;13.304;2022-08-19T14:26:36;24.70;99.90
6724;DHT22;3399;52.530;13.304;2022-08-19T14:29:01;24.70;99.90
6724;DHT22;3399;52.530;13.304;2022-08-19T14:31:27;24.60;99.90
6724;DHT22;3399;52.530;13.304;2022-08-19T14:33:53;24.60;99.90
6724;DHT22;3399;52.530;13.304;2022-08-19T14:36:19;24.60;99.90
6724;DHT22;3399;52.530;13.304;2022-08-19T14:38:46;24.60;99.90
6724;DHT22;3399;52.530;13.304;2022-08-19T14:41:17;24.50;99.90
6724;DHT22;3399;52.530;13.304;2022-08-19T14:43:46;24.50;99.90
6724;DHT22;3399;52.530;13.304;2022-08-19T14:46:17;24.60;99.90
6724;DHT22;3399;52.530;13.304;2022-08-19T14:48:43;24.50;99.90
6724;DHT22;3399;52.530;13.304;2022-08-19T14:51:08;24.50;99.90
6724;DHT22;3399;52.530;13.304;2022-08-19T14:53:34;24.40;99.90
6724;DHT22;3399;52.530;13.304;2022-08-19T14:56:00;24.50;99.90
6724;DHT22;3399;52.530;13.304;2022-08-19T14:58:27;24.50;99.90
6724;DHT22;3399;52.530;13.304;2022-08-19T15:00:52;24.50;99.90
6724;DHT22;3399;52.530;13.304;2022-08-19T15:03:18;24.60;99.90
6724;DHT22;3399;52.530;13.304;2022-08-19T15:05:43;24.50;99.90
6724;DHT22;3399;52.530;13.304;2022-08-19T15:08:09;24.50;99.90
6724;DHT22;3399;52.530;13.304;2022-08-19T15:10:35;24.50;99.90
6724;DHT22;3399;52.530;13.304;2022-08-19T15:13:01;24.50;99.90
6724;DHT22;3399;52.530;13.304;2022-08-19T15:15:26;24.50;99.90
6724;DHT22;3399;52.530;13.304;2022-08-19T15:17:52;24.40;99.90
6724;DHT22;3399;52.530;13.304;2022-08-19T15:20:19;24.50;99.90
6724;DHT22;3399;52.530;13.304;2022-08-19T15:22:46;24.40;99.90
6724;DHT22;3399;52.530;13.304;2022-08-19T15:25:15;24.40;99.90
6724;DHT22;3399;52.530;13.304;2022-08-19T15:27:41;24.40;99.90
6724;DHT22;3399;52.530;13.304;2022-08-19T15:30:09;24.30;99.90
6724;DHT22;3399;52.530;13.304;2022-08-19T15:32:36;24.30;99.90
6724;DHT22;3399;52.530;13.304;2022-08-19T15:35:03;24.30;99.90
6724;DHT22;3399;52.530;13.304;2022-08-19T15:37:29;24.20;99.90
6724;DHT22;3399;52.530;13.304;2022-08-19T15:39:55;24.20;99.90
6724;DHT22;3399;52.530;13.304;2022-08-19T15:42:20;24.20;99.90
6724;DHT22;3399;52.530;13.304;2022-08-19T15:44:46;24.30;99.90
6724;DHT22;3399;52.530;13.304;2022-08-19T15:47:12;24.20;99.90
6724;DHT22;3399;52.530;13.304;2022-08-19T15:49:38;24.10;99.90
6724;DHT22;3399;52.530;13.304;2022-08-19T15:52:04;24.00;99.90
6724;DHT22;3399;52.530;13.304;2022-08-19T15:54:31;24.00;99.90
6724;DHT22;3399;52.530;13.304;2022-08-19T15:56:57;24.00;99.90